Time;durP1;ratioP1;P1;durP2;ratioP2;P2;SDS_P1;SDS_P2;PMS_P1;PMS_P2;Temp;Humidity;BMP_temperature;BMP_pressure;BME280_temperature;BME280_humidity;BME280_pressure;Samples;Min_cycle;Max_cycle;Signal;HPM_P1;HPM_P2
2021/05/17 00:00:16;;;;;;;0.5;0.3;;;;;;;10.05;89.03613;928.2862;;;;
2021/05/17 00:02:41;;;;;;;0.3;0.2;;;;;;;9.99;89.18457;928.2352;;;;
2021/05/17 00:05:07;;;;;;;0;0;;;;;;;10.07;88.81348;928.0992;;;;
2021/05/17 00:07:32;;;;;;;0.1;0.1;;;;;;;10.04;88.41895;928.1495;;;;
2021/05/17 00:09:58;;;;;;;0.1;0.1;;;;;;;9.87;89.32031;928.1055;;;;
2021/05/17 00:12:23;;;;;;;0.2;0.2;;;;;;;10.01;89.62207;928.0627;;;;
2021/05/17 00:14:48;;;;;;;0.4;0.1;;;;;;;10.06;88.57031;927.9576;;;;
2021/05/17 00:17:13;;;;;;;0.2;0.2;;;;;;;10.12;88.64063;928.0433;;;;
2021/05/17 00:19:39;;;;;;;0.3;0.3;;;;;;;10.01;89.25879;928.1678;;;;
2021/05/17 00:22:04;;;;;;;0.1;0.1;;;;;;;9.8;90.81934;928.2494;;;;
2021/05/17 00:24:31;;;;;;;0.9;0.2;;;;;;;9.87;90.41504;928.3256;;;;
2021/05/17 00:27:26;;;;;;;0.2;0.1;;;;;;;9.64;90.77539;928.358;;;;
2021/05/17 00:29:51;;;;;;;0.4;0.1;;;;;;;9.64;90.92383;928.575;;;;
2021/05/17 00:32:16;;;;;;;0.4;0.1;;;;;;;9.78;90.78125;928.4593;;;;
2021/05/17 00:34:50;;;;;;;0.1;0.1;;;;;;;9.84;89.65625;928.4919;;;;
2021/05/17 00:37:15;;;;;;;0;0;;;;;;;9.7;90.93555;928.5471;;;;
2021/05/17 00:39:41;;;;;;;0.7;0.3;;;;;;;9.88;90.4375;928.619;;;;
2021/05/17 00:42:07;;;;;;;0;0;;;;;;;9.98;89.98145;928.4611;;;;
2021/05/17 00:45:34;;;;;;;0.1;0.1;;;;;;;10.08;89.35156;928.3688;;;;
2021/05/17 00:47:59;;;;;;;0;0;;;;;;;10.08;89.17871;928.3273;;;;
2021/05/17 00:50:24;;;;;;;0.1;0.1;;;;;;;10.13;88.7793;928.4425;;;;
2021/05/17 00:52:51;;;;;;;0.1;0.1;;;;;;;10.09;88.19043;928.3353;;;;
2021/05/17 00:55:16;;;;;;;0.1;0.1;;;;;;;10.06;88.36523;928.4086;;;;
2021/05/17 00:57:41;;;;;;;0;0;;;;;;;10;89.0498;928.5287;;;;
2021/05/17 01:00:06;;;;;;;0.1;0.1;;;;;;;10.04;88.70605;928.5327;;;;
2021/05/17 01:02:31;;;;;;;0.1;0.1;;;;;;;10.08;88.71289;928.4658;;;;
2021/05/17 01:04:57;;;;;;;0.1;0.1;;;;;;;10.07;88.79102;928.4229;;;;
2021/05/17 01:07:57;;;;;;;0.1;0.1;;;;;;;10.05;89.08203;928.4819;;;;
2021/05/17 01:10:24;;;;;;;0.2;0.1;;;;;;;9.89;90.11035;928.5856;;;;
2021/05/17 01:12:50;;;;;;;0.1;0.1;;;;;;;9.79;90.48926;928.5976;;;;
2021/05/17 01:15:15;;;;;;;0.4;0.2;;;;;;;9.8;90.61621;928.5045;;;;
2021/05/17 01:17:55;;;;;;;0;0;;;;;;;9.69;90.65039;928.5947;;;;
2021/05/17 01:20:21;;;;;;;0.1;0.1;;;;;;;9.59;90.80078;928.3889;;;;
2021/05/17 01:22:52;;;;;;;0;0;;;;;;;9.66;90.7793;928.4533;;;;
2021/05/17 01:26:08;;;;;;;0.2;0.2;;;;;;;9.68;90.9082;928.5375;;;;
2021/05/17 01:28:22;;;;;;;0.4;0.1;;;;;;;9.67;90.63281;928.5654;;;;
2021/05/17 01:30:45;;;;;;;0.2;0.2;;;;;;;9.8;90.17188;928.4918;;;;
2021/05/17 01:33:10;;;;;;;2.1;0.5;;;;;;;9.87;89.87891;928.4409;;;;
2021/05/17 01:35:36;;;;;;;0.2;0.2;;;;;;;9.84;89.46289;928.387;;;;
2021/05/17 01:38:01;;;;;;;0.1;0.1;;;;;;;9.76;89.47852;928.2766;;;;
2021/05/17 01:40:26;;;;;;;0.2;0.2;;;;;;;9.78;89.79004;928.236;;;;
2021/05/17 01:42:52;;;;;;;0.2;0.2;;;;;;;9.84;89.25586;928.1906;;;;
2021/05/17 01:45:17;;;;;;;1.1;0.4;;;;;;;9.69;89.89844;928.2417;;;;
2021/05/17 01:47:42;;;;;;;0.1;0.1;;;;;;;9.61;89.48242;928.0856;;;;
2021/05/17 01:50:07;;;;;;;0.2;0.2;;;;;;;9.55;89.69727;928.2301;;;;
2021/05/17 01:52:32;;;;;;;0.2;0.1;;;;;;;9.68;89.69141;928.2141;;;;
2021/05/17 01:54:57;;;;;;;0.8;0.2;;;;;;;9.64;89.52246;928.331;;;;
2021/05/17 01:57:22;;;;;;;0.5;0.2;;;;;;;9.72;89.16309;928.3769;;;;
2021/05/17 01:59:47;;;;;;;0.4;0.3;;;;;;;9.82;88.5;928.4682;;;;
2021/05/17 02:02:13;;;;;;;0.2;0.2;;;;;;;9.7;89.24902;928.4524;;;;
2021/05/17 02:04:38;;;;;;;0.1;0.1;;;;;;;9.81;88.89648;928.4356;;;;
2021/05/17 02:07:04;;;;;;;0.6;0.2;;;;;;;9.65;89.58105;928.5822;;;;
2021/05/17 02:09:29;;;;;;;0;0;;;;;;;9.57;90.04297;928.5828;;;;
2021/05/17 02:11:55;;;;;;;0.1;0.1;;;;;;;9.63;89.95117;928.5623;;;;
2021/05/17 02:14:20;;;;;;;0.1;0.1;;;;;;;9.68;89.41797;928.5049;;;;
2021/05/17 02:16:46;;;;;;;0.2;0.2;;;;;;;9.77;88.86426;928.538;;;;
2021/05/17 02:19:11;;;;;;;0.3;0.3;;;;;;;9.71;88.15625;928.4428;;;;
2021/05/17 02:21:37;;;;;;;0.1;0.1;;;;;;;9.61;88.21777;928.5027;;;;
2021/05/17 02:24:03;;;;;;;0.5;0.2;;;;;;;9.51;88.70996;928.4495;;;;
2021/05/17 02:26:28;;;;;;;0.1;0.1;;;;;;;9.62;88.43457;928.3803;;;;
2021/05/17 02:28:56;;;;;;;0.2;0.2;;;;;;;9.6;88.49902;928.4628;;;;
2021/05/17 02:31:22;;;;;;;0.2;0.1;;;;;;;9.43;89.37695;928.5872;;;;
2021/05/17 02:33:47;;;;;;;0.1;0.1;;;;;;;9.45;89.49414;928.63;;;;
2021/05/17 02:36:13;;;;;;;1.8;0.4;;;;;;;9.52;89.50977;928.6426;;;;
2021/05/17 02:41:04;;;;;;;0.3;0.3;;;;;;;9.62;89.2998;928.8469;;;;
2021/05/17 02:43:30;;;;;;;0.3;0.2;;;;;;;9.71;89.36426;928.8403;;;;
2021/05/17 02:45:55;;;;;;;0.7;0.4;;;;;;;9.6;89.37793;928.8895;;;;
2021/05/17 02:48:27;;;;;;;0.6;0.2;;;;;;;9.48;89.48828;928.8708;;;;
2021/05/17 02:50:45;;;;;;;0.4;0.4;;;;;;;9.42;89.65918;928.7644;;;;
2021/05/17 02:53:10;;;;;;;0.5;0.3;;;;;;;9.45;89.72266;928.7294;;;;
2021/05/17 02:55:36;;;;;;;0.3;0.3;;;;;;;9.38;89.92578;928.6878;;;;
2021/05/17 02:58:01;;;;;;;0.6;0.4;;;;;;;9.23;91.02051;928.6588;;;;
2021/05/17 03:00:26;;;;;;;0.4;0.3;;;;;;;9.2;90.62598;928.5353;;;;
2021/05/17 03:03:49;;;;;;;0.1;0.1;;;;;;;9.12;90.04004;928.5164;;;;
2021/05/17 03:06:14;;;;;;;0.1;0.1;;;;;;;8.91;90.16895;928.6163;;;;
2021/05/17 03:08:39;;;;;;;0.3;0.2;;;;;;;9;89.86914;928.5122;;;;
2021/05/17 03:11:04;;;;;;;0.2;0.2;;;;;;;9.03;89.43066;928.4919;;;;
2021/05/17 03:13:29;;;;;;;0.3;0.3;;;;;;;9.04;90.09082;928.5379;;;;
2021/05/17 03:15:55;;;;;;;1.4;0.4;;;;;;;9.02;90.03027;928.5808;;;;
2021/05/17 03:18:21;;;;;;;1.1;0.2;;;;;;;9.09;89.4209;928.5489;;;;
2021/05/17 03:20:46;;;;;;;0.1;0.1;;;;;;;9.09;89.1123;928.6061;;;;
2021/05/17 03:23:40;;;;;;;0.4;0.2;;;;;;;9.21;88.72656;928.5894;;;;
2021/05/17 03:26:06;;;;;;;0.1;0.1;;;;;;;9.06;88.42188;928.6308;;;;
2021/05/17 03:28:31;;;;;;;0.1;0.1;;;;;;;9.18;87.73047;928.668;;;;
2021/05/17 03:30:56;;;;;;;0.2;0.2;;;;;;;9.16;87.56836;928.637;;;;
2021/05/17 03:33:21;;;;;;;0.1;0.1;;;;;;;9.15;87.53223;928.8284;;;;
2021/05/17 03:36:38;;;;;;;0.1;0.1;;;;;;;9.23;87.69629;928.9995;;;;
2021/05/17 03:39:01;;;;;;;0.2;0.2;;;;;;;9.19;87.1748;929.0198;;;;
2021/05/17 03:41:54;;;;;;;0.3;0.2;;;;;;;9.11;87.75;928.9738;;;;
2021/05/17 03:44:19;;;;;;;0.2;0.2;;;;;;;8.88;88.53516;928.9656;;;;
2021/05/17 03:46:44;;;;;;;0.1;0.1;;;;;;;8.53;86.50977;928.8828;;;;
2021/05/17 03:49:10;;;;;;;2.4;0.3;;;;;;;8.72;87.8418;928.8914;;;;
2021/05/17 03:51:35;;;;;;;0.2;0.2;;;;;;;8.62;87.77637;929.0499;;;;
2021/05/17 03:54:01;;;;;;;0.1;0.1;;;;;;;8.74;87.91602;928.954;;;;
2021/05/17 03:56:27;;;;;;;0.1;0.1;;;;;;;8.78;87.68262;928.9731;;;;
2021/05/17 03:58:53;;;;;;;1.3;0.2;;;;;;;8.91;87.20801;929.0187;;;;
2021/05/17 04:02:30;;;;;;;0;0;;;;;;;9.03;86.46094;929.0159;;;;
2021/05/17 04:05:32;;;;;;;0;0;;;;;;;9.12;86.30859;929.0541;;;;
2021/05/17 04:08:20;;;;;;;0.7;0.6;;;;;;;8.88;87.12402;929.0115;;;;
2021/05/17 04:13:40;;;;;;;0.5;0.3;;;;;;;9.13;86.85645;929.0167;;;;
2021/05/17 04:15:06;;;;;;;0.8;0.4;;;;;;;9.11;86.03418;928.9111;;;;
2021/05/17 04:17:31;;;;;;;0.5;0.3;;;;;;;9.15;85.67676;928.9587;;;;
2021/05/17 04:19:57;;;;;;;0.2;0.1;;;;;;;8.95;85.92188;929.0187;;;;
2021/05/17 04:22:22;;;;;;;0.2;0.2;;;;;;;8.98;87.17871;929.045;;;;
2021/05/17 04:24:48;;;;;;;0.6;0.4;;;;;;;9.01;86.84277;929.0921;;;;
2021/05/17 04:27:13;;;;;;;0.3;0.2;;;;;;;8.98;87.29199;929.0433;;;;
2021/05/17 04:29:43;;;;;;;0.1;0.1;;;;;;;9;87.20508;928.9752;;;;
2021/05/17 04:32:08;;;;;;;1.6;0.3;;;;;;;8.78;88.69434;928.9874;;;;
2021/05/17 04:34:33;;;;;;;0.5;0.5;;;;;;;8.77;88.62598;928.9699;;;;
2021/05/17 04:36:58;;;;;;;0.4;0.3;;;;;;;8.94;88.11328;928.9084;;;;
2021/05/17 04:39:23;;;;;;;0.2;0.2;;;;;;;9.04;87.50781;928.9294;;;;
2021/05/17 04:41:48;;;;;;;0.2;0.2;;;;;;;9.09;87.44141;928.9016;;;;
2021/05/17 04:44:15;;;;;;;0.5;0.3;;;;;;;9.13;86.59473;928.9531;;;;
2021/05/17 04:46:40;;;;;;;0.8;0.3;;;;;;;9.08;86.78906;929.127;;;;
2021/05/17 04:49:05;;;;;;;1.3;0.7;;;;;;;9.04;87.12305;929.2009;;;;
2021/05/17 04:51:46;;;;;;;0.5;0.5;;;;;;;9.06;87.87598;929.42;;;;
2021/05/17 04:54:12;;;;;;;0.1;0.1;;;;;;;9.11;87.35254;929.5361;;;;
2021/05/17 04:56:36;;;;;;;0.9;0.2;;;;;;;8.96;87.77637;929.5436;;;;
2021/05/17 04:59:02;;;;;;;0.2;0.1;;;;;;;9.04;87.35059;929.6559;;;;
2021/05/17 05:01:27;;;;;;;0.3;0.2;;;;;;;9.06;88.16211;929.7274;;;;
2021/05/17 05:03:52;;;;;;;0.2;0.2;;;;;;;9.22;87.80664;929.6277;;;;
2021/05/17 05:06:17;;;;;;;0.1;0.1;;;;;;;9.14;88.21289;929.6774;;;;
2021/05/17 05:08:43;;;;;;;0.5;0.3;;;;;;;9.1;88.13574;929.6306;;;;
2021/05/17 05:11:08;;;;;;;5.5;3.3;;;;;;;9.29;87.81152;929.8318;;;;
2021/05/17 05:13:33;;;;;;;0.5;0.5;;;;;;;9.27;87.06641;929.92;;;;
2021/05/17 05:16:01;;;;;;;0.8;0.4;;;;;;;9.38;86.20215;929.932;;;;
2021/05/17 05:18:26;;;;;;;0.8;0.5;;;;;;;9.41;86.21875;929.8973;;;;
2021/05/17 05:20:51;;;;;;;0.6;0.5;;;;;;;9.62;86.17871;929.8984;;;;
2021/05/17 05:23:16;;;;;;;0.5;0.3;;;;;;;9.81;85.94238;929.8473;;;;
2021/05/17 05:25:56;;;;;;;0.1;0.1;;;;;;;10.03;84.74512;929.8482;;;;
2021/05/17 05:28:06;;;;;;;0.3;0.3;;;;;;;10.3;82.16211;929.6881;;;;
2021/05/17 05:30:42;;;;;;;0.3;0.3;;;;;;;10.15;81.07324;929.7191;;;;
2021/05/17 05:33:08;;;;;;;0.1;0.1;;;;;;;10.22;81.4043;929.7314;;;;
2021/05/17 05:35:24;;;;;;;0.5;0.3;;;;;;;10.45;82.3623;929.9258;;;;
2021/05/17 05:37:48;;;;;;;0.4;0.3;;;;;;;10.69;80.85352;929.9959;;;;
2021/05/17 05:40:14;;;;;;;4.2;1.9;;;;;;;10.7;79.98926;929.968;;;;
2021/05/17 05:42:40;;;;;;;1.1;0.9;;;;;;;10.66;78.66699;929.9093;;;;
2021/05/17 05:45:10;;;;;;;1.1;0.7;;;;;;;10.54;80.22168;929.9318;;;;
2021/05/17 05:47:31;;;;;;;1.3;0.7;;;;;;;10.32;81.80176;929.8536;;;;
2021/05/17 05:49:57;;;;;;;1.8;0.7;;;;;;;10.48;81.15723;929.6964;;;;
2021/05/17 05:52:22;;;;;;;0.3;0.3;;;;;;;10.64;80.88867;929.6514;;;;
2021/05/17 05:54:49;;;;;;;1.1;0.5;;;;;;;10.48;81.83105;929.7084;;;;
2021/05/17 05:57:15;;;;;;;0.7;0.4;;;;;;;11.26;80.80176;929.6852;;;;
2021/05/17 05:59:38;;;;;;;0.2;0.2;;;;;;;11.31;78.06445;929.6689;;;;
2021/05/17 06:02:04;;;;;;;0.9;0.5;;;;;;;11.27;78.80176;929.7425;;;;
2021/05/17 06:05:00;;;;;;;0;0;;;;;;;11.5;75.87891;929.7426;;;;
2021/05/17 06:07:25;;;;;;;0.2;0.1;;;;;;;11.33;76.5127;929.9373;;;;
2021/05/17 06:09:50;;;;;;;0.1;0.1;;;;;;;11.03;75.78418;929.9167;;;;
2021/05/17 06:12:16;;;;;;;0.2;0.2;;;;;;;10.74;75.23242;929.9352;;;;
2021/05/17 06:14:41;;;;;;;0.1;0.1;;;;;;;10.97;75.0332;929.8705;;;;
2021/05/17 06:17:06;;;;;;;0.3;0.1;;;;;;;10.84;79.7627;930.0934;;;;
2021/05/17 06:19:31;;;;;;;0.2;0.2;;;;;;;10.76;79.59863;930.0935;;;;
2021/05/17 06:21:58;;;;;;;0.4;0.2;;;;;;;10.6;79.03418;930.121;;;;
2021/05/17 06:24:23;;;;;;;0.3;0.3;;;;;;;10.82;77.07227;930.0999;;;;
2021/05/17 06:26:49;;;;;;;0.8;0.4;;;;;;;11.34;78.17383;930.044;;;;
2021/05/17 06:29:14;;;;;;;1.4;0.3;;;;;;;11.59;75.94043;929.9333;;;;
2021/05/17 06:31:43;;;;;;;0.4;0.3;;;;;;;13.07;71.42285;930.0028;;;;
2021/05/17 06:34:06;;;;;;;0;0;;;;;;;15.59;62.88379;930.0109;;;;
2021/05/17 06:36:31;;;;;;;0.2;0.1;;;;;;;16.3;58.69434;930.0275;;;;
2021/05/17 06:38:56;;;;;;;0;0;;;;;;;16;58.6543;929.9278;;;;
2021/05/17 06:41:21;;;;;;;0.1;0.1;;;;;;;15.41;58.20508;929.9269;;;;
2021/05/17 06:43:46;;;;;;;0.1;0.1;;;;;;;14.83;60.06543;929.9427;;;;
2021/05/17 06:46:12;;;;;;;0;0;;;;;;;14.44;62.1416;929.985;;;;
2021/05/17 06:48:42;;;;;;;0.1;0.1;;;;;;;13.79;65.83398;929.9686;;;;
2021/05/17 06:51:03;;;;;;;0.3;0.2;;;;;;;13.59;67.34473;929.9451;;;;
2021/05/17 06:53:29;;;;;;;0.1;0.1;;;;;;;15;62.52148;929.9113;;;;
2021/05/17 06:56:01;;;;;;;0.1;0.1;;;;;;;17.14;55.50293;929.9086;;;;
2021/05/17 06:58:23;;;;;;;0.3;0.3;;;;;;;19.13;48.39551;929.7745;;;;
2021/05/17 07:00:47;;;;;;;0.6;0.1;;;;;;;19.98;43.55273;929.7665;;;;
2021/05/17 07:03:12;;;;;;;0.2;0.2;;;;;;;19.82;43.82813;929.7042;;;;
2021/05/17 07:05:37;;;;;;;0.1;0.1;;;;;;;18.92;48.98828;929.7804;;;;
2021/05/17 07:12:53;;;;;;;0.6;0.1;;;;;;;17.61;49.46875;929.7567;;;;
2021/05/17 07:15:19;;;;;;;0.2;0.2;;;;;;;17.25;51.09863;929.794;;;;
2021/05/17 07:17:45;;;;;;;0.1;0.1;;;;;;;17.61;52.3125;929.8967;;;;
2021/05/17 07:20:10;;;;;;;0.3;0.1;;;;;;;17.55;50.22852;929.9694;;;;
2021/05/17 07:25:00;;;;;;;0;0;;;;;;;16.65;55.16211;929.9039;;;;
2021/05/17 07:27:26;;;;;;;0.7;0.3;;;;;;;16.46;57.52246;929.9226;;;;
2021/05/17 07:29:51;;;;;;;0.1;0.1;;;;;;;15.73;59.18262;929.9092;;;;
2021/05/17 07:32:16;;;;;;;0.3;0.2;;;;;;;15.33;59.13965;929.9785;;;;
2021/05/17 07:34:41;;;;;;;0.5;0.3;;;;;;;15.35;61.00293;929.9514;;;;
2021/05/17 07:37:06;;;;;;;0.6;0.3;;;;;;;15.22;60.96094;930.1227;;;;
2021/05/17 07:39:31;;;;;;;0.3;0.2;;;;;;;14.61;61.77539;930.0627;;;;
2021/05/17 07:41:57;;;;;;;0.8;0.2;;;;;;;14.47;64.6123;930.1711;;;;
2021/05/17 07:44:22;;;;;;;0.2;0.2;;;;;;;14.2;65.83887;930.3441;;;;
2021/05/17 07:46:47;;;;;;;0.8;0.2;;;;;;;13.53;57.09277;930.3244;;;;
2021/05/17 07:49:42;;;;;;;0.1;0.1;;;;;;;13.01;57.03516;930.2943;;;;
2021/05/17 07:52:51;;;;;;;0.1;0.1;;;;;;;12.15;65.72461;930.3524;;;;
2021/05/17 07:56:00;;;;;;;0.4;0.1;;;;;;;11.85;65.85059;930.4185;;;;
2021/05/17 07:59:09;;;;;;;0;0;;;;;;;11.64;66.90527;930.4227;;;;
2021/05/17 08:02:21;;;;;;;0.3;0.2;;;;;;;11.18;68.09277;930.4543;;;;
2021/05/17 08:05:30;;;;;;;0.1;0.1;;;;;;;10.83;67.33008;930.4439;;;;
2021/05/17 08:08:40;;;;;;;0.3;0.3;;;;;;;10.84;70.17676;930.6063;;;;
2021/05/17 08:11:52;;;;;;;0.1;0.1;;;;;;;11.06;70.46484;930.5187;;;;
2021/05/17 08:15:01;;;;;;;3.9;1.2;;;;;;;11.03;70.95996;930.53;;;;
2021/05/17 08:18:11;;;;;;;3.4;0.8;;;;;;;11.26;70.56348;930.5634;;;;
2021/05/17 08:21:20;;;;;;;0.1;0.1;;;;;;;11.37;69.02734;930.5332;;;;
2021/05/17 08:24:29;;;;;;;0.6;0.5;;;;;;;11.52;67.94141;930.6744;;;;
2021/05/17 08:27:39;;;;;;;0;0;;;;;;;11.42;68.85254;930.6678;;;;
2021/05/17 08:30:04;;;;;;;0.5;0.4;;;;;;;11.27;70.10938;930.6877;;;;
2021/05/17 08:32:29;;;;;;;3.9;0.8;;;;;;;11.29;70.36426;930.7576;;;;
2021/05/17 08:34:54;;;;;;;0.9;0.5;;;;;;;11.55;70.47559;930.7643;;;;
2021/05/17 08:37:19;;;;;;;0.9;0.5;;;;;;;12.03;67.05859;930.6805;;;;
2021/05/17 08:39:45;;;;;;;63.8;28.9;;;;;;;12.58;67.41895;930.6742;;;;
2021/05/17 08:42:10;;;;;;;5.9;3.4;;;;;;;13.18;64.47852;930.6803;;;;
2021/05/17 08:44:37;;;;;;;1.6;0.5;;;;;;;14.11;61.13965;930.6153;;;;
2021/05/17 08:47:01;;;;;;;0.6;0.2;;;;;;;14.96;57.32715;930.5541;;;;
2021/05/17 08:49:26;;;;;;;0.6;0.3;;;;;;;16.92;52.50781;930.53;;;;
2021/05/17 08:51:51;;;;;;;0.4;0.2;;;;;;;17.53;50.26074;930.548;;;;
2021/05/17 08:54:17;;;;;;;0;0;;;;;;;17.5;51.25586;930.6285;;;;
2021/05/17 08:56:43;;;;;;;0;0;;;;;;;17.28;51.7627;930.58;;;;
2021/05/17 08:59:08;;;;;;;0;0;;;;;;;16.83;49.92578;930.5847;;;;
2021/05/17 09:01:33;;;;;;;0;0;;;;;;;16.13;48.70117;930.6317;;;;
2021/05/17 09:03:58;;;;;;;0;0;;;;;;;14.99;52.13965;930.5342;;;;
2021/05/17 09:06:23;;;;;;;0;0;;;;;;;13.59;57.07617;930.6922;;;;
2021/05/17 09:08:48;;;;;;;0.3;0.2;;;;;;;13.07;61.02832;930.775;;;;
2021/05/17 09:11:14;;;;;;;0;0;;;;;;;12.58;63.18457;930.8611;;;;
2021/05/17 09:16:14;;;;;;;0;0;;;;;;;12.33;60.99414;930.7858;;;;
2021/05/17 09:18:40;;;;;;;0.1;0.1;;;;;;;12.24;60.88965;930.8234;;;;
2021/05/17 09:21:12;;;;;;;0;0;;;;;;;12.33;64.9043;930.7898;;;;
2021/05/17 09:23:42;;;;;;;0;0;;;;;;;12.46;61.50586;930.8344;;;;
2021/05/17 09:26:09;;;;;;;0;0;;;;;;;12.54;59.2793;930.8512;;;;
2021/05/17 09:28:36;;;;;;;0.4;0.2;;;;;;;12.48;58.6748;930.9341;;;;
2021/05/17 09:31:11;;;;;;;0;0;;;;;;;12.39;58.84668;930.9737;;;;
2021/05/17 09:33:27;;;;;;;0.1;0.1;;;;;;;12.48;58.21582;930.8845;;;;
2021/05/17 09:35:54;;;;;;;0;0;;;;;;;13.04;56.22461;930.8633;;;;
2021/05/17 09:38:20;;;;;;;0;0;;;;;;;13.52;56.34375;930.9474;;;;
2021/05/17 09:40:47;;;;;;;0;0;;;;;;;13.51;56.87207;930.918;;;;
2021/05/17 09:43:12;;;;;;;0;0;;;;;;;13.4;55.5918;930.9153;;;;
2021/05/17 09:45:45;;;;;;;0.2;0;;;;;;;13.35;54.09082;930.9111;;;;
2021/05/17 09:48:11;;;;;;;0;0;;;;;;;13.4;56.0752;930.8865;;;;
2021/05/17 09:50:42;;;;;;;0;0;;;;;;;13.5;57.42285;930.8517;;;;
2021/05/17 09:53:11;;;;;;;0;0;;;;;;;13.74;53.01367;930.9119;;;;
2021/05/17 09:55:43;;;;;;;0;0;;;;;;;14.33;55.36523;930.8755;;;;
2021/05/17 09:58:08;;;;;;;1.1;0;;;;;;;14.86;52.04297;930.7645;;;;
2021/05/17 10:00:33;;;;;;;2.1;0.5;;;;;;;15.17;50.90234;930.7281;;;;
2021/05/17 10:03:01;;;;;;;0;0;;;;;;;15.07;48.75586;930.7583;;;;
2021/05/17 10:05:26;;;;;;;0;0;;;;;;;14.75;51.32617;930.7719;;;;
2021/05/17 10:07:51;;;;;;;0.2;0.1;;;;;;;14.72;52.22266;930.718;;;;
2021/05/17 10:10:17;;;;;;;0.1;0;;;;;;;14.82;49.25977;930.6771;;;;
2021/05/17 10:12:42;;;;;;;0.1;0;;;;;;;15.27;48.8252;930.6896;;;;
2021/05/17 10:15:11;;;;;;;7.8;0.1;;;;;;;15.53;49.70801;930.6409;;;;
2021/05/17 10:17:40;;;;;;;0.2;0.1;;;;;;;15.64;48.01172;930.6158;;;;
2021/05/17 10:20:05;;;;;;;0.1;0.1;;;;;;;15.92;46.19336;930.5214;;;;
2021/05/17 10:22:34;;;;;;;0;0;;;;;;;16.15;45.11816;930.4728;;;;
2021/05/17 10:25:04;;;;;;;0.1;0.1;;;;;;;16.49;45.0957;930.4095;;;;
2021/05/17 10:27:29;;;;;;;0;0;;;;;;;16.48;44.45801;930.38;;;;
2021/05/17 10:29:54;;;;;;;0;0;;;;;;;16.69;45.62598;930.4747;;;;
2021/05/17 10:32:19;;;;;;;0.1;0.1;;;;;;;16.01;46.70996;930.5419;;;;
2021/05/17 10:34:46;;;;;;;0;0;;;;;;;15.28;47.38379;930.532;;;;
2021/05/17 10:37:11;;;;;;;0.7;0.3;;;;;;;14.97;51.23633;930.7809;;;;
2021/05/17 10:39:39;;;;;;;0;0;;;;;;;13.78;55.49121;931.0257;;;;
2021/05/17 10:42:16;;;;;;;0.1;0;;;;;;;12.88;62.75684;931.2572;;;;
2021/05/17 10:44:39;;;;;;;1.2;0.7;;;;;;;12.09;66.16211;931.3041;;;;
2021/05/17 10:46:51;;;;;;;0;0;;;;;;;11.71;67.49023;931.3265;;;;
2021/05/17 10:49:18;;;;;;;0.3;0.3;;;;;;;11.53;67.01465;931.2459;;;;
2021/05/17 10:51:43;;;;;;;1.8;0.4;;;;;;;11.62;66.97168;931.2139;;;;
2021/05/17 10:54:08;;;;;;;0.9;0.3;;;;;;;12.34;71.01563;931.1259;;;;
2021/05/17 10:56:33;;;;;;;0.4;0.3;;;;;;;13.62;62.46289;931.0457;;;;
2021/05/17 11:01:25;;;;;;;0;0;;;;;;;15.58;58.38965;930.9216;;;;
2021/05/17 11:03:51;;;;;;;0;0;;;;;;;15.76;54.08008;930.894;;;;
2021/05/17 11:06:16;;;;;;;0;0;;;;;;;15.61;53.875;930.8828;;;;
2021/05/17 11:08:41;;;;;;;0;0;;;;;;;15.72;57.03223;930.7371;;;;
2021/05/17 11:11:07;;;;;;;0.1;0.1;;;;;;;15.73;50.93262;930.7921;;;;
2021/05/17 11:13:33;;;;;;;0.1;0;;;;;;;15.48;54.125;930.7593;;;;
2021/05/17 11:16:08;;;;;;;0;0;;;;;;;15.57;53.375;930.7461;;;;
2021/05/17 11:18:39;;;;;;;0;0;;;;;;;16.08;50.45313;930.7236;;;;
2021/05/17 11:21:03;;;;;;;0;0;;;;;;;15.62;47.54785;930.7792;;;;
2021/05/17 11:23:33;;;;;;;0.2;0.1;;;;;;;15.33;47.42188;930.7357;;;;
2021/05/17 11:26:00;;;;;;;0;0;;;;;;;15.67;49.64355;930.783;;;;
2021/05/17 11:28:27;;;;;;;0;0;;;;;;;15.69;47.17285;930.8308;;;;
2021/05/17 11:30:55;;;;;;;0;0;;;;;;;15.6;49.06934;930.7594;;;;
2021/05/17 11:33:24;;;;;;;0;0;;;;;;;15.34;47.4248;930.6736;;;;
2021/05/17 11:35:55;;;;;;;0;0;;;;;;;15.22;47.5957;930.7572;;;;
2021/05/17 11:38:21;;;;;;;0;0;;;;;;;15;50.38574;930.7723;;;;
2021/05/17 11:40:46;;;;;;;0.4;0.3;;;;;;;15.62;48.73828;930.7358;;;;
2021/05/17 11:43:11;;;;;;;1.2;0.8;;;;;;;15.58;45.68359;930.7241;;;;
2021/05/17 11:45:48;;;;;;;0.1;0.1;;;;;;;14.9;47.08789;930.6981;;;;
2021/05/17 11:48:18;;;;;;;0.1;0.1;;;;;;;14.72;48.37207;930.6145;;;;
2021/05/17 11:50:51;;;;;;;0.9;0.6;;;;;;;15.36;47.20801;930.6411;;;;
2021/05/17 11:53:19;;;;;;;0.1;0.1;;;;;;;15.18;47.60254;930.55;;;;
2021/05/17 11:55:48;;;;;;;0;0;;;;;;;15.19;46.11621;930.5809;;;;
2021/05/17 11:58:14;;;;;;;0;0;;;;;;;15.31;48.86426;930.4152;;;;
2021/05/17 12:00:41;;;;;;;0;0;;;;;;;15.73;47.45508;930.4542;;;;
2021/05/17 12:03:08;;;;;;;0;0;;;;;;;15.79;48.0166;930.2899;;;;
2021/05/17 12:05:33;;;;;;;0;0;;;;;;;16.06;47.58301;930.3755;;;;
2021/05/17 12:08:01;;;;;;;0;0;;;;;;;16.21;42.30176;930.2922;;;;
2021/05/17 12:10:26;;;;;;;0.1;0.1;;;;;;;16.26;43.55664;930.4069;;;;
2021/05/17 12:12:53;;;;;;;0.1;0.1;;;;;;;16.15;41.89063;930.4119;;;;
2021/05/17 12:15:17;;;;;;;0;0;;;;;;;15.91;44.80371;930.4014;;;;
2021/05/17 12:17:42;;;;;;;0;0;;;;;;;15.93;44.45996;930.2947;;;;
2021/05/17 12:20:07;;;;;;;0.2;0;;;;;;;16.01;42.53613;930.2906;;;;
2021/05/17 12:22:36;;;;;;;0;0;;;;;;;16.03;44.19238;930.1714;;;;
2021/05/17 12:24:59;;;;;;;0;0;;;;;;;16.25;44.05371;930.2625;;;;
2021/05/17 12:27:26;;;;;;;0;0;;;;;;;16.05;41.48926;930.1942;;;;
2021/05/17 12:29:51;;;;;;;0;0;;;;;;;16.07;41.75586;930.2299;;;;
2021/05/17 12:32:16;;;;;;;0;0;;;;;;;16.35;41.55176;930.2288;;;;
2021/05/17 12:34:41;;;;;;;0.1;0;;;;;;;16.43;41.14355;930.2703;;;;
2021/05/17 12:37:07;;;;;;;0;0;;;;;;;16.61;39.97852;930.2279;;;;
2021/05/17 12:39:35;;;;;;;0;0;;;;;;;16.36;41.06641;930.2559;;;;
2021/05/17 12:42:00;;;;;;;0.3;0.1;;;;;;;16.51;41.27637;930.3183;;;;
2021/05/17 12:44:28;;;;;;;0;0;;;;;;;16.83;39.2334;930.4641;;;;
2021/05/17 12:46:53;;;;;;;0.3;0.1;;;;;;;16.81;39.30176;930.5399;;;;
2021/05/17 12:49:18;;;;;;;0;0;;;;;;;16.97;40.0459;930.5374;;;;
2021/05/17 12:51:43;;;;;;;0.4;0.2;;;;;;;16.89;41.7998;930.4672;;;;
2021/05/17 12:54:09;;;;;;;0;0;;;;;;;16.93;41.27051;930.5644;;;;
2021/05/17 12:56:35;;;;;;;0;0;;;;;;;17;44.74219;930.6347;;;;
2021/05/17 12:59:07;;;;;;;0;0;;;;;;;17.13;41.56836;930.6651;;;;
2021/05/17 13:01:34;;;;;;;1.7;0.4;;;;;;;17.36;44.52344;930.6631;;;;
2021/05/17 13:03:57;;;;;;;0;0;;;;;;;17.52;41.24512;930.6038;;;;
2021/05/17 13:06:22;;;;;;;0;0;;;;;;;17.4;39.06445;930.7689;;;;
2021/05/17 13:08:48;;;;;;;0.1;0;;;;;;;16.66;37.65625;930.916;;;;
2021/05/17 13:11:13;;;;;;;0;0;;;;;;;16.32;41.4668;930.9125;;;;
2021/05/17 13:13:38;;;;;;;0;0;;;;;;;15.92;41.48828;931.1019;;;;
2021/05/17 13:16:03;;;;;;;0.1;0.1;;;;;;;15.4;42.59277;931.0945;;;;
2021/05/17 13:18:33;;;;;;;4.8;0;;;;;;;15.22;43.76465;931.0853;;;;
2021/05/17 13:20:56;;;;;;;0;0;;;;;;;15.21;42.56348;931.0586;;;;
2021/05/17 13:23:49;;;;;;;0.1;0.1;;;;;;;15.32;44.44434;931.1418;;;;
2021/05/17 13:30:41;;;;;;;0;0;;;;;;;14.5;50.89355;931.5493;;;;
2021/05/17 13:33:06;;;;;;;0;0;;;;;;;14.09;50.85645;931.5909;;;;
2021/05/17 13:35:31;;;;;;;0;0;;;;;;;13.58;54.5;931.585;;;;
2021/05/17 13:37:58;;;;;;;0;0;;;;;;;13.54;57.84082;931.7078;;;;
2021/05/17 13:40:23;;;;;;;0;0;;;;;;;13.63;54.88477;931.7271;;;;
2021/05/17 13:42:48;;;;;;;0;0;;;;;;;14.03;57.8252;931.6581;;;;
2021/05/17 13:45:14;;;;;;;0.6;0.2;;;;;;;14.35;54.45898;931.6824;;;;
2021/05/17 13:47:39;;;;;;;0.1;0.1;;;;;;;14.7;57.01465;931.6015;;;;
2021/05/17 13:50:04;;;;;;;0.6;0.3;;;;;;;14.68;57.44043;931.3758;;;;
2021/05/17 13:52:29;;;;;;;0.2;0.2;;;;;;;14.93;56.41016;931.29;;;;
2021/05/17 13:54:54;;;;;;;0.1;0.1;;;;;;;15.08;53.55762;931.2391;;;;
2021/05/17 13:57:19;;;;;;;0.7;0;;;;;;;15.01;56.30664;931.0902;;;;
2021/05/17 13:59:44;;;;;;;0.6;0.2;;;;;;;14.99;57.74414;931.1124;;;;
2021/05/17 14:02:09;;;;;;;0.6;0.5;;;;;;;15.12;55.4082;930.9994;;;;
2021/05/17 14:04:35;;;;;;;0;0;;;;;;;14.51;53.87891;931.0403;;;;
2021/05/17 14:07:00;;;;;;;0.9;0.4;;;;;;;14.66;54.70508;931.0748;;;;
2021/05/17 14:09:25;;;;;;;0.3;0.2;;;;;;;14.84;52.88184;931.0831;;;;
2021/05/17 14:11:51;;;;;;;0;0;;;;;;;14.67;53.58789;931.0811;;;;
2021/05/17 14:14:15;;;;;;;0;0;;;;;;;14.67;53.83008;931.1492;;;;
2021/05/17 14:16:40;;;;;;;0.2;0.2;;;;;;;14.89;56.91309;931.0284;;;;
2021/05/17 14:19:06;;;;;;;0.2;0.2;;;;;;;14.88;54.33984;930.9637;;;;
2021/05/17 14:21:32;;;;;;;0.1;0;;;;;;;14.94;55.8125;930.8656;;;;
2021/05/17 14:23:57;;;;;;;0.2;0.2;;;;;;;15.17;54.58496;930.8284;;;;
2021/05/17 14:26:23;;;;;;;0.4;0.2;;;;;;;15.29;50.47852;930.8111;;;;
2021/05/17 14:29:13;;;;;;;0;0;;;;;;;15.25;49.98828;930.8994;;;;
2021/05/17 14:31:39;;;;;;;0;0;;;;;;;15.35;51.29297;930.7352;;;;
2021/05/17 14:34:04;;;;;;;0;0;;;;;;;15.41;51.94629;930.7997;;;;
2021/05/17 14:36:30;;;;;;;0.1;0.1;;;;;;;15.86;48.50977;930.8666;;;;
2021/05/17 14:38:55;;;;;;;0;0;;;;;;;16.04;47.07227;930.9839;;;;
2021/05/17 14:41:21;;;;;;;0.2;0.1;;;;;;;16.36;48.31152;931.0392;;;;
2021/05/17 14:43:46;;;;;;;0.3;0.1;;;;;;;16.07;47.41211;931.1445;;;;
2021/05/17 14:46:13;;;;;;;0.6;0.1;;;;;;;15.46;49.19238;931.4144;;;;
2021/05/17 14:48:38;;;;;;;0.2;0.2;;;;;;;14.93;53.61914;931.5096;;;;
2021/05/17 14:51:04;;;;;;;0.5;0.2;;;;;;;14.19;53.87402;931.6494;;;;
2021/05/17 14:53:30;;;;;;;0.4;0.3;;;;;;;13.67;53.33789;931.7161;;;;
2021/05/17 14:55:55;;;;;;;0.6;0.4;;;;;;;13.47;56.32715;931.7703;;;;
2021/05/17 14:58:21;;;;;;;0.1;0.1;;;;;;;12.79;57.22461;931.8865;;;;
2021/05/17 15:00:47;;;;;;;0.2;0.2;;;;;;;12.45;59.40625;932.0848;;;;
2021/05/17 15:03:12;;;;;;;0.2;0.2;;;;;;;12.52;63.72754;932.4731;;;;
2021/05/17 15:05:39;;;;;;;0;0;;;;;;;12.22;64.81836;932.8597;;;;
2021/05/17 15:08:04;;;;;;;0.5;0.2;;;;;;;12;66.48145;933.082;;;;
2021/05/17 15:10:30;;;;;;;0;0;;;;;;;11.64;64.3877;932.8262;;;;